Time,TemperatureF,DewpointF,PressureIn,WindDirection,WindDirectionDegrees,WindSpeedMPH,WindSpeedGustMPH,Humidity,HourlyPrecipIn,Conditions,Clouds,dailyrainin,SoftwareType,DateUTC
2013-04-07 00:00:00,49.1,48.9,30.14,SE,135,0.0,0.0,99,0.00,,,0.02,meteohub,2013-04-07 04:00:00,
2013-04-07 00:01:00,49.1,48.9,30.14,SE,135,0.0,0.0,99,0.00,,,0.02,meteohub,2013-04-07 04:01:00,
2013-04-07 00:02:00,49.1,48.9,30.13,SE,135,0.0,0.0,99,0.00,,,0.02,meteohub,2013-04-07 04:02:00,
2013-04-07 00:03:00,48.9,48.7,30.13,SE,135,0.0,0.0,99,0.00,,,0.02,meteohub,2013-04-07 04:03:00,
2013-04-07 00:08:00,48.7,48.6,30.13,SE,135,0.0,0.0,99,0.00,,,0.00,meteohub,2013-04-07 04:08:00,
2013-04-07 00:13:00,48.6,48.4,30.14,SE,135,0.0,0.0,99,0.00,,,0.00,meteohub,2013-04-07 04:13:00,
2013-04-07 00:19:00,48.2,48.0,30.13,SE,135,0.0,0.0,99,0.00,,,0.00,meteohub,2013-04-07 04:19:00,
2013-04-07 00:24:00,48.6,48.4,30.13,SE,135,0.0,0.0,99,0.00,,,0.00,meteohub,2013-04-07 04:24:00,
2013-04-07 00:30:00,48.7,48.6,30.13,SE,135,0.0,0.0,99,0.00,,,0.00,meteohub,2013-04-07 04:30:00,
2013-04-07 00:35:00,48.7,48.6,30.13,SE,135,0.0,0.0,99,0.00,,,0.00,meteohub,2013-04-07 04:35:00,
2013-04-07 00:40:00,48.6,48.4,30.13,SE,135,0.0,0.0,99,0.00,,,0.00,meteohub,2013-04-07 04:40:00,
2013-04-07 00:45:00,48.4,48.2,30.13,West,270,0.0,0.0,99,0.00,,,0.00,meteohub,2013-04-07 04:45:00,
2013-04-07 00:50:00,48.2,48.0,30.12,West,270,0.0,1.0,99,0.00,,,0.00,meteohub,2013-04-07 04:50:00,
2013-04-07 00:55:00,47.8,47.7,30.12,West,270,0.0,1.0,99,0.00,,,0.00,meteohub,2013-04-07 04:55:00,
2013-04-07 01:00:00,47.8,47.7,30.12,West,270,0.0,1.0,99,0.00,,,0.00,meteohub,2013-04-07 05:00:00,
2013-04-07 01:05:00,48.0,47.8,30.12,East,90,0.0,0.0,99,0.00,,,0.00,meteohub,2013-04-07 05:05:00,
2013-04-07 01:11:00,47.8,47.7,30.12,East,90,0.0,0.0,99,0.00,,,0.00,meteohub,2013-04-07 05:11:00,
2013-04-07 01:16:00,47.8,47.7,30.12,East,90,0.0,0.0,99,0.00,,,0.00,meteohub,2013-04-07 05:16:00,
2013-04-07 01:22:00,47.8,47.7,30.11,East,90,0.0,0.0,99,0.00,,,0.00,meteohub,2013-04-07 05:22:00,
2013-04-07 01:27:00,47.7,47.5,30.11,East,90,0.0,0.0,99,0.00,,,0.00,meteohub,2013-04-07 05:27:00,
2013-04-07 01:32:00,47.5,47.3,30.10,East,90,0.0,0.0,99,0.00,,,0.00,meteohub,2013-04-07 05:32:00,
2013-04-07 01:37:00,47.5,47.3,30.10,East,90,0.0,0.0,99,0.00,,,0.00,meteohub,2013-04-07 05:37:00,
2013-04-07 01:42:00,47.5,47.3,30.10,East,90,0.0,0.0,99,0.00,,,0.00,meteohub,2013-04-07 05:42:00,
2013-04-07 01:47:00,47.7,47.5,30.10,East,90,0.0,0.0,99,0.00,,,0.00,meteohub,2013-04-07 05:47:00,
2013-04-07 01:52:00,47.7,47.5,30.10,East,90,0.0,0.0,99,0.00,,,0.00,meteohub,2013-04-07 05:52:00,
2013-04-07 01:57:00,47.7,47.5,30.10,East,90,0.0,0.0,99,0.00,,,0.00,meteohub,2013-04-07 05:57:00,
2013-04-07 02:02:00,47.7,47.5,30.10,East,90,0.0,0.0,99,0.00,,,0.00,meteohub,2013-04-07 06:02:00,
2013-04-07 02:07:00,47.5,47.3,30.09,East,90,0.0,0.0,99,0.00,,,0.00,meteohub,2013-04-07 06:07:00,
2013-04-07 02:12:00,47.3,47.1,30.10,East,90,0.0,0.0,99,0.00,,,0.00,meteohub,2013-04-07 06:12:00,
2013-04-07 02:17:00,47.3,47.1,30.10,East,90,0.0,0.0,99,0.00,,,0.00,meteohub,2013-04-07 06:17:00,
2013-04-07 02:22:00,47.7,47.5,30.09,East,90,0.0,0.0,99,0.00,,,0.00,meteohub,2013-04-07 06:22:00,
2013-04-07 02:27:00,47.7,47.5,30.09,East,90,0.0,0.0,99,0.00,,,0.00,meteohub,2013-04-07 06:27:00,
2013-04-07 02:32:00,47.5,47.3,30.09,East,90,0.0,0.0,99,0.00,,,0.00,meteohub,2013-04-07 06:32:00,
2013-04-07 02:37:00,47.3,47.1,30.09,East,90,0.0,0.0,99,0.00,,,0.00,meteohub,2013-04-07 06:37:00,
2013-04-07 02:42:00,47.3,47.1,30.09,East,90,0.0,0.0,99,0.00,,,0.00,meteohub,2013-04-07 06:42:00,
2013-04-07 02:47:00,47.3,47.1,30.09,East,90,0.0,0.0,99,0.00,,,0.00,meteohub,2013-04-07 06:47:00,
2013-04-07 02:52:00,47.5,47.3,30.09,East,90,0.0,0.0,99,0.00,,,0.00,meteohub,2013-04-07 06:52:00,
2013-04-07 02:57:00,47.5,47.3,30.09,East,90,0.0,0.0,99,0.00,,,0.00,meteohub,2013-04-07 06:57:00,
2013-04-07 03:02:00,47.5,47.3,30.09,East,90,0.0,0.0,99,0.00,,,0.00,meteohub,2013-04-07 07:02:00,
2013-04-07 03:07:00,47.3,47.1,30.09,East,90,0.0,0.0,99,0.00,,,0.00,meteohub,2013-04-07 07:07:00,
2013-04-07 03:12:00,47.3,47.1,30.09,East,90,0.0,0.0,99,0.00,,,0.00,meteohub,2013-04-07 07:12:00,
2013-04-07 03:18:00,47.1,46.9,30.09,East,90,0.0,0.0,99,0.00,,,0.00,meteohub,2013-04-07 07:18:00,
2013-04-07 03:23:00,47.3,47.1,30.09,East,90,0.0,0.0,99,0.00,,,0.00,meteohub,2013-04-07 07:23:00,
2013-04-07 03:28:00,47.5,47.3,30.09,East,90,0.0,0.0,99,0.00,,,0.00,meteohub,2013-04-07 07:28:00,
2013-04-07 03:33:00,47.5,47.3,30.09,East,90,0.0,0.0,99,0.00,,,0.00,meteohub,2013-04-07 07:33:00,
2013-04-07 03:39:00,47.5,47.3,30.09,East,90,0.0,0.0,99,0.00,,,0.00,meteohub,2013-04-07 07:39:00,
2013-04-07 03:44:00,47.7,47.5,30.09,East,90,0.0,0.0,99,0.00,,,0.00,meteohub,2013-04-07 07:44:00,
2013-04-07 03:49:00,47.7,47.5,30.09,East,90,0.0,0.0,99,0.00,,,0.00,meteohub,2013-04-07 07:49:00,
2013-04-07 03:55:00,47.7,47.5,30.09,East,90,0.0,0.0,99,0.00,,,0.00,meteohub,2013-04-07 07:55:00,
2013-04-07 04:00:00,47.7,47.5,30.09,East,90,0.0,0.0,99,0.00,,,0.00,meteohub,2013-04-07 08:00:00,
2013-04-07 04:05:00,47.7,47.5,30.09,East,90,0.0,0.0,99,0.00,,,0.00,meteohub,2013-04-07 08:05:00,
2013-04-07 04:10:00,47.7,47.5,30.08,East,90,0.0,0.0,99,0.00,,,0.00,meteohub,2013-04-07 08:10:00,
2013-04-07 04:16:00,47.8,47.7,30.08,East,90,0.0,0.0,99,0.00,,,0.00,meteohub,2013-04-07 08:16:00,
2013-04-07 04:21:00,48.0,47.8,30.08,East,90,0.0,0.0,99,0.00,,,0.00,meteohub,2013-04-07 08:21:00,
2013-04-07 04:26:00,48.0,47.8,30.09,East,90,0.0,0.0,99,0.00,,,0.00,meteohub,2013-04-07 08:26:00,
2013-04-07 04:32:00,48.2,48.0,30.09,East,90,0.0,0.0,99,0.00,,,0.00,meteohub,2013-04-07 08:32:00,
2013-04-07 04:37:00,48.2,48.0,30.09,East,90,0.0,0.0,99,0.00,,,0.00,meteohub,2013-04-07 08:37:00,
2013-04-07 04:42:00,48.4,48.2,30.09,East,90,0.0,0.0,99,0.00,,,0.00,meteohub,2013-04-07 08:42:00,
2013-04-07 04:47:00,48.4,48.2,30.09,East,90,0.0,0.0,99,0.00,,,0.00,meteohub,2013-04-07 08:47:00,
2013-04-07 04:52:00,48.4,48.2,30.09,East,90,0.0,0.0,99,0.00,,,0.00,meteohub,2013-04-07 08:52:00,
2013-04-07 04:58:00,48.4,48.2,30.09,East,90,0.0,0.0,99,0.00,,,0.00,meteohub,2013-04-07 08:58:00,
2013-04-07 05:03:00,48.6,48.4,30.09,East,90,0.0,0.0,99,0.00,,,0.00,meteohub,2013-04-07 09:03:00,
2013-04-07 05:08:00,48.7,48.6,30.09,East,90,0.0,0.0,99,0.00,,,0.00,meteohub,2013-04-07 09:08:00,
2013-04-07 05:13:00,48.7,48.6,30.09,East,90,0.0,0.0,99,0.00,,,0.00,meteohub,2013-04-07 09:13:00,
2013-04-07 05:19:00,48.6,48.4,30.09,East,90,0.0,0.0,99,0.00,,,0.00,meteohub,2013-04-07 09:19:00,
2013-04-07 05:24:00,48.6,48.4,30.09,East,90,0.0,0.0,99,0.00,,,0.00,meteohub,2013-04-07 09:24:00,
2013-04-07 05:30:00,48.6,48.4,30.09,East,90,0.0,0.0,99,0.00,,,0.00,meteohub,2013-04-07 09:30:00,
2013-04-07 05:35:00,48.4,48.2,30.09,East,90,0.0,0.0,99,0.00,,,0.00,meteohub,2013-04-07 09:35:00,
2013-04-07 05:40:00,48.0,47.8,30.09,East,90,0.0,0.0,99,0.00,,,0.00,meteohub,2013-04-07 09:40:00,
2013-04-07 05:46:00,47.8,47.7,30.09,East,90,0.0,0.0,99,0.00,,,0.00,meteohub,2013-04-07 09:46:00,
2013-04-07 05:51:00,47.7,47.5,30.09,East,90,0.0,0.0,99,0.00,,,0.00,meteohub,2013-04-07 09:51:00,
2013-04-07 05:57:00,47.8,47.7,30.09,East,90,0.0,0.0,99,0.00,,,0.00,meteohub,2013-04-07 09:57:00,
2013-04-07 06:02:00,47.8,47.7,30.09,East,90,0.0,0.0,99,0.00,,,0.00,meteohub,2013-04-07 10:02:00,
2013-04-07 06:07:00,47.8,47.7,30.09,East,90,0.0,0.0,99,0.00,,,0.00,meteohub,2013-04-07 10:07:00,
2013-04-07 06:12:00,47.8,47.7,30.09,East,90,0.0,0.0,99,0.00,,,0.00,meteohub,2013-04-07 10:12:00,
2013-04-07 06:17:00,48.0,47.8,30.09,East,90,0.0,0.0,99,0.00,,,0.00,meteohub,2013-04-07 10:17:00,
2013-04-07 06:22:00,48.0,47.8,30.10,East,90,0.0,0.0,99,0.00,,,0.00,meteohub,2013-04-07 10:22:00,
2013-04-07 06:27:00,48.0,47.8,30.10,East,90,0.0,0.0,99,0.00,,,0.00,meteohub,2013-04-07 10:27:00,
2013-04-07 06:32:00,48.2,48.0,30.10,East,90,0.0,0.0,99,0.00,,,0.00,meteohub,2013-04-07 10:32:00,
2013-04-07 06:37:00,48.0,47.8,30.10,East,90,0.0,0.0,99,0.00,,,0.00,meteohub,2013-04-07 10:37:00,
2013-04-07 06:43:00,48.0,47.8,30.10,East,90,0.0,0.0,99,0.00,,,0.00,meteohub,2013-04-07 10:43:00,
2013-04-07 06:48:00,47.8,47.7,30.10,East,90,0.0,0.0,99,0.00,,,0.00,meteohub,2013-04-07 10:48:00,
2013-04-07 06:53:00,47.8,47.7,30.10,East,90,0.0,0.0,99,0.00,,,0.00,meteohub,2013-04-07 10:53:00,
2013-04-07 06:58:00,48.0,47.8,30.11,East,90,0.0,0.0,99,0.00,,,0.00,meteohub,2013-04-07 10:58:00,
2013-04-07 07:04:00,48.0,47.8,30.11,East,90,0.0,0.0,99,0.00,,,0.00,meteohub,2013-04-07 11:04:00,
2013-04-07 07:09:00,48.0,47.8,30.11,East,90,0.0,0.0,99,0.00,,,0.00,meteohub,2013-04-07 11:09:00,
2013-04-07 07:14:00,48.2,48.0,30.11,East,90,0.0,0.0,99,0.00,,,0.00,meteohub,2013-04-07 11:14:00,
2013-04-07 07:19:00,48.2,48.0,30.11,East,90,0.0,0.0,99,0.00,,,0.00,meteohub,2013-04-07 11:19:00,
2013-04-07 07:25:00,48.4,48.2,30.12,East,90,0.0,0.0,99,0.00,,,0.00,meteohub,2013-04-07 11:25:00,
2013-04-07 07:30:00,48.7,48.6,30.12,East,90,0.0,0.0,99,0.00,,,0.00,meteohub,2013-04-07 11:30:00,
2013-04-07 07:35:00,49.3,49.1,30.12,East,90,0.0,0.0,99,0.00,,,0.00,meteohub,2013-04-07 11:35:00,
2013-04-07 07:40:00,50.0,49.6,30.12,East,90,0.0,0.0,99,0.00,,,0.00,meteohub,2013-04-07 11:40:00,
2013-04-07 07:46:00,50.5,50.2,30.12,East,90,0.0,0.0,99,0.00,,,0.00,meteohub,2013-04-07 11:46:00,
2013-04-07 07:51:00,51.4,51.1,30.12,East,90,0.0,0.0,99,0.00,,,0.00,meteohub,2013-04-07 11:51:00,
2013-04-07 07:56:00,52.7,52.3,30.13,SE,135,1.0,0.0,99,0.00,,,0.00,meteohub,2013-04-07 11:56:00,
2013-04-07 08:01:00,54.1,53.8,30.13,North,0,0.0,1.0,99,0.00,,,0.00,meteohub,2013-04-07 12:01:00,
2013-04-07 08:06:00,55.4,55.0,30.13,East,90,0.0,1.0,99,0.00,,,0.00,meteohub,2013-04-07 12:06:00,
2013-04-07 08:12:00,56.7,56.3,30.13,East,90,1.0,1.0,99,0.00,,,0.00,meteohub,2013-04-07 12:12:00,
2013-04-07 08:17:00,57.6,57.2,30.13,SE,135,2.0,2.0,99,0.00,,,0.00,meteohub,2013-04-07 12:17:00,
2013-04-07 08:22:00,58.1,57.7,30.13,East,90,2.0,2.0,99,0.00,,,0.00,meteohub,2013-04-07 12:22:00,
2013-04-07 08:27:00,59.0,58.6,30.13,ESE,113,3.0,3.0,99,0.00,,,0.00,meteohub,2013-04-07 12:27:00,
2013-04-07 08:33:00,59.9,59.5,30.13,East,90,3.0,3.0,99,0.00,,,0.00,meteohub,2013-04-07 12:33:00,
2013-04-07 08:38:00,60.4,60.1,30.13,East,90,2.0,3.0,99,0.00,,,0.00,meteohub,2013-04-07 12:38:00,
2013-04-07 08:43:00,61.2,60.8,30.14,SE,135,4.0,4.0,99,0.00,,,0.00,meteohub,2013-04-07 12:43:00,
2013-04-07 08:48:00,62.1,61.7,30.14,East,90,3.0,4.0,99,0.00,,,0.00,meteohub,2013-04-07 12:48:00,
2013-04-07 08:54:00,63.0,62.6,30.14,ESE,113,4.0,4.0,99,0.00,,,0.00,meteohub,2013-04-07 12:54:00,
2013-04-07 08:59:00,63.5,63.1,30.15,East,90,3.0,4.0,99,0.00,,,0.00,meteohub,2013-04-07 12:59:00,
2013-04-07 09:04:00,63.5,63.1,30.15,SE,135,4.0,6.0,99,0.00,,,0.00,meteohub,2013-04-07 13:04:00,
2013-04-07 09:09:00,63.9,63.5,30.14,SE,135,3.0,6.0,99,0.00,,,0.00,meteohub,2013-04-07 13:09:00,
2013-04-07 09:15:00,65.1,64.8,30.15,SE,135,4.0,6.0,99,0.00,,,0.00,meteohub,2013-04-07 13:15:00,
2013-04-07 09:20:00,66.4,66.0,30.14,East,90,3.0,4.0,99,0.00,,,0.00,meteohub,2013-04-07 13:20:00,
2013-04-07 09:25:00,67.6,67.3,30.14,East,90,4.0,4.0,99,0.00,,,0.00,meteohub,2013-04-07 13:25:00,
2013-04-07 09:30:00,68.2,67.8,30.14,SE,135,4.0,6.0,99,0.00,,,0.00,meteohub,2013-04-07 13:30:00,
2013-04-07 09:35:00,69.1,68.7,30.14,SE,135,4.0,6.0,99,0.00,,,0.00,meteohub,2013-04-07 13:35:00,
2013-04-07 09:41:00,69.6,68.4,30.14,SE,135,9.0,9.0,96,0.00,,,0.00,meteohub,2013-04-07 13:41:00,
2013-04-07 09:46:00,69.8,68.5,30.15,ESE,113,5.0,9.0,96,0.00,,,0.00,meteohub,2013-04-07 13:46:00,
2013-04-07 09:52:00,70.2,68.9,30.14,East,90,11.0,11.0,96,0.00,,,0.00,meteohub,2013-04-07 13:52:00,
2013-04-07 09:57:00,70.0,68.2,30.15,ENE,68,9.0,11.0,94,0.00,,,0.00,meteohub,2013-04-07 13:57:00,
2013-04-07 10:02:00,70.3,68.2,30.15,SE,135,9.0,11.0,93,0.00,,,0.00,meteohub,2013-04-07 14:02:00,
2013-04-07 10:07:00,70.7,68.5,30.15,SE,135,9.0,11.0,93,0.00,,,0.00,meteohub,2013-04-07 14:07:00,
2013-04-07 10:12:00,71.1,68.5,30.15,NE,45,6.0,11.0,92,0.00,,,0.00,meteohub,2013-04-07 14:12:00,
2013-04-07 10:17:00,71.4,68.9,30.15,SE,135,7.0,11.0,92,0.00,,,0.00,meteohub,2013-04-07 14:17:00,
2013-04-07 10:22:00,72.3,69.3,30.15,SE,135,8.0,11.0,90,0.00,,,0.00,meteohub,2013-04-07 14:22:00,
2013-04-07 10:27:00,72.7,69.3,30.15,ESE,113,6.0,11.0,89,0.00,,,0.00,meteohub,2013-04-07 14:27:00,
2013-04-07 10:33:00,73.4,69.6,30.15,South,180,7.0,8.0,88,0.00,,,0.00,meteohub,2013-04-07 14:33:00,
2013-04-07 10:38:00,73.9,70.2,30.15,East,90,6.0,8.0,88,0.00,,,0.00,meteohub,2013-04-07 14:38:00,
2013-04-07 10:43:00,74.1,70.0,30.15,SE,135,8.0,8.0,87,0.00,,,0.00,meteohub,2013-04-07 14:43:00,
2013-04-07 10:49:00,74.5,70.7,30.16,SE,135,6.0,8.0,88,0.00,,,0.00,meteohub,2013-04-07 14:49:00,
2013-04-07 10:54:00,75.0,70.9,30.16,ESE,113,4.0,8.0,87,0.00,,,0.00,meteohub,2013-04-07 14:54:00,
2013-04-07 10:59:00,75.9,70.7,30.16,ESE,113,7.0,8.0,84,0.00,,,0.00,meteohub,2013-04-07 14:59:00,
2013-04-07 11:05:00,76.1,70.9,30.16,SE,135,9.0,9.0,84,0.00,,,0.00,meteohub,2013-04-07 15:05:00,
2013-04-07 11:10:00,75.9,70.7,30.16,East,90,8.0,9.0,84,0.00,,,0.00,meteohub,2013-04-07 15:10:00,
2013-04-07 11:16:00,75.9,71.1,30.15,East,90,8.0,11.0,85,0.00,,,0.00,meteohub,2013-04-07 15:16:00,
2013-04-07 11:21:00,76.5,70.9,30.15,SE,135,8.0,11.0,83,0.00,,,0.00,meteohub,2013-04-07 15:21:00,
2013-04-07 11:26:00,76.1,71.6,30.15,SE,135,10.0,10.0,86,0.00,,,0.00,meteohub,2013-04-07 15:26:00,
2013-04-07 11:32:00,76.5,70.2,30.15,NNW,338,4.0,10.0,81,0.00,,,0.00,meteohub,2013-04-07 15:32:00,
2013-04-07 11:37:00,77.2,70.5,30.15,East,90,6.0,10.0,80,0.00,,,0.00,meteohub,2013-04-07 15:37:00,
2013-04-07 11:42:00,77.2,70.5,30.15,SE,135,5.0,10.0,80,0.00,,,0.00,meteohub,2013-04-07 15:42:00,
2013-04-07 11:47:00,77.4,70.7,30.15,West,270,4.0,8.0,80,0.00,,,0.00,meteohub,2013-04-07 15:47:00,
2013-04-07 11:52:00,77.4,71.4,30.16,East,90,5.0,8.0,82,0.00,,,0.00,meteohub,2013-04-07 15:52:00,
2013-04-07 11:57:00,77.4,70.3,30.15,NE,45,5.0,8.0,79,0.00,,,0.00,meteohub,2013-04-07 15:57:00,
2013-04-07 12:02:00,77.0,71.1,30.15,South,180,2.0,8.0,82,0.00,,,0.00,meteohub,2013-04-07 16:02:00,
2013-04-07 12:08:00,75.9,69.3,30.15,West,270,5.0,8.0,80,0.00,,,0.00,meteohub,2013-04-07 16:08:00,
2013-04-07 12:13:00,75.7,69.4,30.15,ENE,68,8.0,8.0,81,0.00,,,0.00,meteohub,2013-04-07 16:13:00,
2013-04-07 12:18:00,76.5,68.7,30.14,SE,135,4.0,8.0,77,0.00,,,0.00,meteohub,2013-04-07 16:18:00,
2013-04-07 12:23:00,77.5,68.9,30.14,SE,135,8.0,8.0,75,0.00,,,0.00,meteohub,2013-04-07 16:23:00,
2013-04-07 12:28:00,78.4,69.1,30.14,SE,135,8.0,8.0,73,0.00,,,0.00,meteohub,2013-04-07 16:28:00,
2013-04-07 12:33:00,78.1,68.7,30.14,NW,315,4.0,11.0,73,0.00,,,0.00,meteohub,2013-04-07 16:33:00,
2013-04-07 12:39:00,78.6,69.3,30.14,East,90,4.0,11.0,73,0.00,,,0.00,meteohub,2013-04-07 16:39:00,
2013-04-07 12:44:00,78.3,68.0,30.14,WNW,293,7.0,11.0,71,0.00,,,0.00,meteohub,2013-04-07 16:44:00,
2013-04-07 12:49:00,77.2,68.7,30.14,South,180,5.0,8.0,75,0.00,,,0.00,meteohub,2013-04-07 16:49:00,
2013-04-07 12:54:00,77.0,67.6,30.13,NW,315,6.0,8.0,73,0.00,,,0.00,meteohub,2013-04-07 16:54:00,
2013-04-07 12:59:00,76.6,66.9,30.13,NE,45,3.0,8.0,72,0.00,,,0.00,meteohub,2013-04-07 16:59:00,
2013-04-07 13:05:00,76.5,66.0,30.13,East,90,6.0,8.0,70,0.00,,,0.00,meteohub,2013-04-07 17:05:00,
2013-04-07 13:10:00,76.6,66.6,30.12,SE,135,3.0,6.0,71,0.00,,,0.00,meteohub,2013-04-07 17:10:00,
2013-04-07 13:15:00,77.0,67.3,30.12,SW,225,2.0,6.0,72,0.00,,,0.00,meteohub,2013-04-07 17:15:00,
2013-04-07 13:20:00,77.5,68.5,30.12,NW,315,5.0,6.0,74,0.00,,,0.00,meteohub,2013-04-07 17:20:00,
2013-04-07 13:26:00,77.5,68.2,30.12,SE,135,4.0,8.0,73,0.00,,,0.00,meteohub,2013-04-07 17:26:00,
2013-04-07 13:31:00,78.4,68.2,30.12,NW,315,4.0,8.0,71,0.00,,,0.00,meteohub,2013-04-07 17:31:00,
2013-04-07 13:36:00,77.5,67.5,30.12,East,90,6.0,8.0,71,0.00,,,0.00,meteohub,2013-04-07 17:36:00,
2013-04-07 13:41:00,76.6,67.6,30.12,NW,315,5.0,8.0,74,0.00,,,0.00,meteohub,2013-04-07 17:41:00,
2013-04-07 13:46:00,76.5,67.6,30.12,NE,45,4.0,10.0,74,0.00,,,0.00,meteohub,2013-04-07 17:46:00,
2013-04-07 13:52:00,76.5,67.6,30.11,North,0,2.0,10.0,74,0.00,,,0.00,meteohub,2013-04-07 17:52:00,
2013-04-07 13:57:00,76.5,67.1,30.11,WNW,293,5.0,10.0,73,0.00,,,0.00,meteohub,2013-04-07 17:57:00,
2013-04-07 14:02:00,76.3,67.5,30.10,West,270,3.0,8.0,74,0.00,,,0.00,meteohub,2013-04-07 18:02:00,
2013-04-07 14:08:00,76.6,66.9,30.10,NE,45,5.0,8.0,72,0.00,,,0.00,meteohub,2013-04-07 18:08:00,
2013-04-07 14:13:00,77.0,68.0,30.10,ENE,68,3.0,10.0,74,0.00,,,0.00,meteohub,2013-04-07 18:13:00,
2013-04-07 14:18:00,79.0,69.6,30.10,South,180,5.0,10.0,73,0.00,,,0.00,meteohub,2013-04-07 18:18:00,
2013-04-07 14:24:00,79.7,69.4,30.10,South,180,9.0,11.0,71,0.00,,,0.00,meteohub,2013-04-07 18:24:00,
2013-04-07 14:29:00,79.9,70.9,30.10,SE,135,7.0,11.0,74,0.00,,,0.00,meteohub,2013-04-07 18:29:00,
2013-04-07 14:34:00,79.9,70.0,30.09,East,90,13.0,13.0,72,0.00,,,0.00,meteohub,2013-04-07 18:34:00,
2013-04-07 14:39:00,77.0,68.5,30.09,SE,135,4.0,10.0,75,0.00,,,0.00,meteohub,2013-04-07 18:39:00,
2013-04-07 14:45:00,76.6,68.5,30.09,SW,225,2.0,13.0,76,0.00,,,0.00,meteohub,2013-04-07 18:45:00,
2013-04-07 14:50:00,77.7,66.7,30.09,East,90,8.0,13.0,69,0.00,,,0.00,meteohub,2013-04-07 18:50:00,
2013-04-07 14:55:00,78.3,68.9,30.09,SE,135,4.0,11.0,73,0.00,,,0.00,meteohub,2013-04-07 18:55:00,
2013-04-07 15:00:00,79.2,69.8,30.09,SE,135,9.0,11.0,73,0.00,,,0.00,meteohub,2013-04-07 19:00:00,
2013-04-07 15:05:00,79.3,67.5,30.09,NW,315,6.0,9.0,67,0.00,,,0.00,meteohub,2013-04-07 19:05:00,
2013-04-07 15:11:00,79.2,65.8,30.09,NW,315,9.0,9.0,64,0.00,,,0.00,meteohub,2013-04-07 19:11:00,
2013-04-07 15:16:00,78.4,67.5,30.08,SW,225,8.0,9.0,69,0.00,,,0.00,meteohub,2013-04-07 19:16:00,
2013-04-07 15:21:00,78.4,67.5,30.08,NW,315,7.0,9.0,69,0.00,,,0.00,meteohub,2013-04-07 19:21:00,
2013-04-07 15:26:00,78.4,67.5,30.08,SE,135,6.0,9.0,69,0.00,,,0.00,meteohub,2013-04-07 19:26:00,
2013-04-07 15:32:00,78.1,66.7,30.07,South,180,7.0,8.0,68,0.00,,,0.00,meteohub,2013-04-07 19:32:00,
2013-04-07 15:37:00,77.2,67.1,30.07,West,270,6.0,10.0,71,0.00,,,0.00,meteohub,2013-04-07 19:37:00,
2013-04-07 15:42:00,77.2,66.6,30.07,SW,225,8.0,14.0,70,0.00,,,0.00,meteohub,2013-04-07 19:42:00,
2013-04-07 15:47:00,76.3,66.2,30.07,SE,135,8.0,14.0,71,0.00,,,0.00,meteohub,2013-04-07 19:47:00,
2013-04-07 15:52:00,75.9,65.8,30.07,East,90,6.0,14.0,71,0.00,,,0.00,meteohub,2013-04-07 19:52:00,
2013-04-07 15:57:00,77.5,67.5,30.06,NNW,338,4.0,12.0,71,0.00,,,0.00,meteohub,2013-04-07 19:57:00,
2013-04-07 16:02:00,79.3,65.7,30.06,ENE,68,9.0,9.0,63,0.00,,,0.00,meteohub,2013-04-07 20:02:00,
2013-04-07 16:07:00,80.6,66.9,30.07,North,0,9.0,12.0,63,0.00,,,0.00,meteohub,2013-04-07 20:07:00,
2013-04-07 16:13:00,80.4,65.7,30.06,West,270,5.0,12.0,61,0.00,,,0.00,meteohub,2013-04-07 20:13:00,
2013-04-07 16:18:00,80.4,66.2,30.06,East,90,4.0,12.0,62,0.00,,,0.00,meteohub,2013-04-07 20:18:00,
2013-04-07 16:23:00,80.8,66.0,30.06,East,90,8.0,9.0,61,0.00,,,0.00,meteohub,2013-04-07 20:23:00,
2013-04-07 16:29:00,80.6,66.9,30.06,East,90,8.0,8.0,63,0.00,,,0.00,meteohub,2013-04-07 20:29:00,
2013-04-07 16:34:00,78.3,66.4,30.06,East,90,9.0,9.0,67,0.00,,,0.00,meteohub,2013-04-07 20:34:00,
2013-04-07 16:39:00,77.4,68.0,30.06,East,90,8.0,8.0,73,0.00,,,0.00,meteohub,2013-04-07 20:39:00,
2013-04-07 16:44:00,78.3,67.3,30.06,ENE,68,9.0,14.0,69,0.00,,,0.00,meteohub,2013-04-07 20:44:00,
2013-04-07 16:50:00,79.7,66.9,30.06,NW,315,8.0,14.0,65,0.00,,,0.00,meteohub,2013-04-07 20:50:00,
2013-04-07 16:55:00,80.6,67.3,30.05,East,90,10.0,11.0,64,0.00,,,0.00,meteohub,2013-04-07 20:55:00,
2013-04-07 17:00:00,81.0,66.7,30.06,NW,315,11.0,11.0,62,0.00,,,0.00,meteohub,2013-04-07 21:00:00,
2013-04-07 17:06:00,81.0,67.1,30.06,North,0,4.0,11.0,63,0.00,,,0.00,meteohub,2013-04-07 21:06:00,
2013-04-07 17:11:00,81.5,67.6,30.06,NW,315,5.0,11.0,63,0.00,,,0.00,meteohub,2013-04-07 21:11:00,
2013-04-07 17:16:00,81.3,67.1,30.06,NW,315,12.0,12.0,62,0.00,,,0.00,meteohub,2013-04-07 21:16:00,
2013-04-07 17:22:00,81.0,68.0,30.06,SE,135,6.0,12.0,65,0.00,,,0.00,meteohub,2013-04-07 21:22:00,
2013-04-07 17:27:00,80.4,68.0,30.06,NE,45,4.0,12.0,66,0.00,,,0.00,meteohub,2013-04-07 21:27:00,
2013-04-07 17:32:00,78.6,66.4,30.06,West,270,3.0,12.0,66,0.00,,,0.00,meteohub,2013-04-07 21:32:00,
2013-04-07 17:37:00,77.7,66.4,30.05,East,90,5.0,9.0,68,0.00,,,0.00,meteohub,2013-04-07 21:37:00,
2013-04-07 17:42:00,77.0,66.0,30.06,SW,225,4.0,9.0,69,0.00,,,0.00,meteohub,2013-04-07 21:42:00,
2013-04-07 17:47:00,76.3,66.2,30.06,East,90,4.0,9.0,71,0.00,,,0.00,meteohub,2013-04-07 21:47:00,
2013-04-07 17:52:00,75.6,65.8,30.06,East,90,9.0,9.0,72,0.00,,,0.00,meteohub,2013-04-07 21:52:00,
2013-04-07 17:57:00,75.4,65.7,30.06,SE,135,4.0,9.0,72,0.00,,,0.00,meteohub,2013-04-07 21:57:00,
2013-04-07 18:03:00,75.4,66.2,30.06,SE,135,4.0,9.0,73,0.00,,,0.00,meteohub,2013-04-07 22:03:00,
2013-04-07 18:08:00,74.5,65.7,30.06,SE,135,4.0,9.0,74,0.00,,,0.00,meteohub,2013-04-07 22:08:00,
2013-04-07 18:13:00,74.8,65.7,30.06,SE,135,4.0,8.0,73,0.00,,,0.00,meteohub,2013-04-07 22:13:00,
2013-04-07 18:18:00,76.1,66.0,30.06,ESE,113,6.0,8.0,71,0.00,,,0.00,meteohub,2013-04-07 22:18:00,
2013-04-07 18:23:00,76.6,66.9,30.05,SE,135,5.0,8.0,72,0.00,,,0.00,meteohub,2013-04-07 22:23:00,
2013-04-07 18:28:00,76.3,65.8,30.06,SE,135,5.0,7.0,70,0.00,,,0.00,meteohub,2013-04-07 22:28:00,
2013-04-07 18:33:00,76.5,66.0,30.06,East,90,4.0,11.0,70,0.00,,,0.00,meteohub,2013-04-07 22:33:00,
2013-04-07 18:38:00,76.1,66.4,30.06,SE,135,4.0,11.0,72,0.00,,,0.00,meteohub,2013-04-07 22:38:00,
2013-04-07 18:44:00,75.6,65.8,30.06,NW,315,4.0,11.0,72,0.00,,,0.00,meteohub,2013-04-07 22:44:00,
2013-04-07 18:49:00,75.7,66.0,30.06,SW,225,4.0,11.0,72,0.00,,,0.00,meteohub,2013-04-07 22:49:00,
2013-04-07 18:54:00,75.6,66.4,30.05,WSW,248,8.0,11.0,73,0.00,,,0.00,meteohub,2013-04-07 22:54:00,
2013-04-07 18:59:00,75.2,66.4,30.06,ENE,68,3.0,11.0,74,0.00,,,0.00,meteohub,2013-04-07 22:59:00,
2013-04-07 19:04:00,74.5,66.4,30.06,NE,45,4.0,8.0,76,0.00,,,0.00,meteohub,2013-04-07 23:04:00,
2013-04-07 19:10:00,73.4,66.2,30.06,West,270,7.0,8.0,78,0.00,,,0.00,meteohub,2013-04-07 23:10:00,
2013-04-07 19:15:00,72.0,66.2,30.06,East,90,7.0,7.0,82,0.00,,,0.00,meteohub,2013-04-07 23:15:00,
2013-04-07 19:20:00,70.7,66.4,30.06,NW,315,4.0,7.0,86,0.00,,,0.00,meteohub,2013-04-07 23:20:00,
2013-04-07 19:26:00,69.8,65.8,30.06,West,270,2.0,7.0,87,0.00,,,0.00,meteohub,2013-04-07 23:26:00,
2013-04-07 19:32:00,69.1,66.0,30.06,SE,135,4.0,7.0,90,0.00,,,0.00,meteohub,2013-04-07 23:32:00,
2013-04-07 19:37:00,68.5,65.8,30.06,North,0,2.0,5.0,91,0.00,,,0.00,meteohub,2013-04-07 23:37:00,
2013-04-07 19:42:00,68.0,65.8,30.06,NE,45,4.0,4.0,93,0.00,,,0.00,meteohub,2013-04-07 23:42:00,
2013-04-07 19:47:00,67.3,65.5,30.06,South,180,2.0,4.0,94,0.00,,,0.00,meteohub,2013-04-07 23:47:00,
2013-04-07 19:52:00,66.9,65.7,30.06,NW,315,2.0,4.0,96,0.00,,,0.00,meteohub,2013-04-07 23:52:00,
2013-04-07 19:57:00,66.4,65.8,30.06,East,90,3.0,4.0,98,0.00,,,0.00,meteohub,2013-04-07 23:57:00,
2013-04-07 20:02:00,65.8,65.5,30.06,SW,225,2.0,4.0,99,0.00,,,0.00,meteohub,2013-04-08 00:02:00,
2013-04-07 20:07:00,65.5,65.1,30.07,SE,135,1.0,4.0,99,0.00,,,0.00,meteohub,2013-04-08 00:07:00,
2013-04-07 20:12:00,65.1,64.8,30.07,South,180,1.0,3.0,99,0.00,,,0.00,meteohub,2013-04-08 00:12:00,
2013-04-07 20:17:00,64.6,64.2,30.07,SE,135,0.0,2.0,99,0.00,,,0.00,meteohub,2013-04-08 00:17:00,
2013-04-07 20:22:00,63.9,63.5,30.07,SE,135,2.0,2.0,99,0.00,,,0.00,meteohub,2013-04-08 00:22:00,
2013-04-07 20:28:00,63.3,63.0,30.07,North,0,1.0,2.0,99,0.00,,,0.00,meteohub,2013-04-08 00:28:00,
2013-04-07 20:33:00,63.0,62.6,30.07,East,90,1.0,2.0,99,0.00,,,0.00,meteohub,2013-04-08 00:33:00,
2013-04-07 20:38:00,62.8,62.4,30.07,West,270,0.0,2.0,99,0.00,,,0.00,meteohub,2013-04-08 00:38:00,
2013-04-07 20:43:00,62.4,62.1,30.07,West,270,1.0,2.0,99,0.00,,,0.00,meteohub,2013-04-08 00:43:00,
2013-04-07 20:48:00,62.1,61.7,30.07,West,270,0.0,2.0,99,0.00,,,0.00,meteohub,2013-04-08 00:48:00,
2013-04-07 20:53:00,61.5,61.2,30.07,West,270,0.0,1.0,99,0.00,,,0.00,meteohub,2013-04-08 00:53:00,
2013-04-07 20:58:00,61.3,61.0,30.07,West,270,2.0,2.0,99,0.00,,,0.00,meteohub,2013-04-08 00:58:00,
2013-04-07 21:04:00,61.2,60.8,30.07,West,270,0.0,1.0,99,0.00,,,0.00,meteohub,2013-04-08 01:04:00,
2013-04-07 21:09:00,61.0,60.6,30.07,West,270,0.0,2.0,99,0.00,,,0.00,meteohub,2013-04-08 01:09:00,
2013-04-07 21:15:00,60.4,60.1,30.07,South,180,0.0,2.0,99,0.00,,,0.00,meteohub,2013-04-08 01:15:00,
2013-04-07 21:20:00,60.4,60.1,30.07,South,180,0.0,1.0,99,0.00,,,0.00,meteohub,2013-04-08 01:20:00,
2013-04-07 21:25:00,60.3,59.9,30.07,SE,135,0.0,1.0,99,0.00,,,0.00,meteohub,2013-04-08 01:25:00,
2013-04-07 21:30:00,60.3,59.9,30.08,SE,135,0.0,1.0,99,0.00,,,0.00,meteohub,2013-04-08 01:30:00,
2013-04-07 21:35:00,59.9,59.5,30.08,SE,135,0.0,1.0,99,0.00,,,0.00,meteohub,2013-04-08 01:35:00,
2013-04-07 21:41:00,59.7,59.4,30.08,SE,135,0.0,1.0,99,0.00,,,0.00,meteohub,2013-04-08 01:41:00,
2013-04-07 21:47:00,59.4,59.0,30.08,South,180,0.0,0.0,99,0.00,,,0.00,meteohub,2013-04-08 01:47:00,
2013-04-07 21:52:00,59.4,59.0,30.09,SE,135,0.0,1.0,99,0.00,,,0.00,meteohub,2013-04-08 01:52:00,
2013-04-07 21:57:00,59.2,58.8,30.09,SE,135,0.0,1.0,99,0.00,,,0.00,meteohub,2013-04-08 01:57:00,
2013-04-07 22:02:00,59.2,58.8,30.08,SE,135,0.0,2.0,99,0.00,,,0.00,meteohub,2013-04-08 02:02:00,
2013-04-07 22:07:00,59.0,58.6,30.08,SE,135,0.0,2.0,99,0.00,,,0.00,meteohub,2013-04-08 02:07:00,
2013-04-07 22:12:00,58.6,58.3,30.08,SE,135,0.0,0.0,99,0.00,,,0.00,meteohub,2013-04-08 02:12:00,
2013-04-07 22:17:00,58.3,57.9,30.08,SE,135,0.0,0.0,99,0.00,,,0.00,meteohub,2013-04-08 02:17:00,
2013-04-07 22:22:00,58.1,57.7,30.08,SE,135,0.0,0.0,99,0.00,,,0.00,meteohub,2013-04-08 02:22:00,
2013-04-07 22:28:00,58.1,57.7,30.09,SE,135,1.0,0.0,99,0.00,,,0.00,meteohub,2013-04-08 02:28:00,
2013-04-07 22:33:00,57.9,57.6,30.08,SE,135,0.0,1.0,99,0.00,,,0.00,meteohub,2013-04-08 02:33:00,
2013-04-07 22:38:00,57.9,57.6,30.09,SE,135,0.0,1.0,99,0.00,,,0.00,meteohub,2013-04-08 02:38:00,
2013-04-07 22:43:00,57.7,57.4,30.08,SE,135,0.0,1.0,99,0.00,,,0.00,meteohub,2013-04-08 02:43:00,
2013-04-07 22:49:00,57.7,57.4,30.08,SE,135,0.0,0.0,99,0.00,,,0.00,meteohub,2013-04-08 02:49:00,
2013-04-07 22:54:00,57.6,57.2,30.08,SE,135,1.0,0.0,99,0.00,,,0.00,meteohub,2013-04-08 02:54:00,
2013-04-07 22:59:00,57.4,57.0,30.08,SE,135,0.0,1.0,99,0.00,,,0.00,meteohub,2013-04-08 02:59:00,
2013-04-07 23:05:00,57.4,57.0,30.08,SE,135,1.0,1.0,99,0.00,,,0.00,meteohub,2013-04-08 03:05:00,
2013-04-07 23:10:00,57.4,57.0,30.08,SE,135,0.0,1.0,99,0.00,,,0.00,meteohub,2013-04-08 03:10:00,
2013-04-07 23:15:00,57.2,56.8,30.09,South,180,1.0,1.0,99,0.00,,,0.00,meteohub,2013-04-08 03:15:00,
2013-04-07 23:21:00,57.2,56.8,30.08,South,180,0.0,1.0,99,0.00,,,0.00,meteohub,2013-04-08 03:21:00,
2013-04-07 23:26:00,57.4,57.0,30.08,South,180,0.0,1.0,99,0.00,,,0.00,meteohub,2013-04-08 03:26:00,
2013-04-07 23:31:00,57.6,57.2,30.09,South,180,0.0,1.0,99,0.00,,,0.00,meteohub,2013-04-08 03:31:00,
2013-04-07 23:37:00,57.6,57.2,30.08,South,180,0.0,0.0,99,0.00,,,0.00,meteohub,2013-04-08 03:37:00,
2013-04-07 23:42:00,57.2,56.8,30.08,South,180,0.0,0.0,99,0.00,,,0.00,meteohub,2013-04-08 03:42:00,
2013-04-07 23:47:00,57.0,56.7,30.08,South,180,0.0,0.0,99,0.00,,,0.00,meteohub,2013-04-08 03:47:00,
2013-04-07 23:52:00,56.8,56.5,30.08,South,180,0.0,0.0,99,0.00,,,0.00,meteohub,2013-04-08 03:52:00,
2013-04-07 23:57:00,56.7,56.3,30.08,ESE,113,0.0,0.0,99,0.00,,,0.00,meteohub,2013-04-08 03:57:00,